sensor_id;sensor_type;location;lat;lon;timestamp;temperature;humidity
18781;DHT22;9519;51.890;8.970;2023-04-24T00:01:52;12.80;94.50
18781;DHT22;9519;51.890;8.970;2023-04-24T00:06:54;12.80;93.70
18781;DHT22;9519;51.890;8.970;2023-04-24T00:11:59;12.80;93.60
18781;DHT22;9519;51.890;8.970;2023-04-24T00:17:03;12.80;93.50
18781;DHT22;9519;51.890;8.970;2023-04-24T00:22:05;12.80;93.60
18781;DHT22;9519;51.890;8.970;2023-04-24T00:27:09;12.80;93.50
18781;DHT22;9519;51.890;8.970;2023-04-24T00:32:11;12.70;93.50
18781;DHT22;9519;51.890;8.970;2023-04-24T00:37:13;12.70;93.50
18781;DHT22;9519;51.890;8.970;2023-04-24T00:42:16;12.70;93.50
18781;DHT22;9519;51.890;8.970;2023-04-24T00:47:19;12.60;93.50
18781;DHT22;9519;51.890;8.970;2023-04-24T00:52:22;12.50;93.50
18781;DHT22;9519;51.890;8.970;2023-04-24T00:57:28;12.40;93.50
18781;DHT22;9519;51.890;8.970;2023-04-24T01:02:31;12.40;93.60
18781;DHT22;9519;51.890;8.970;2023-04-24T01:07:35;12.30;93.60
18781;DHT22;9519;51.890;8.970;2023-04-24T01:12:39;12.30;93.60
18781;DHT22;9519;51.890;8.970;2023-04-24T01:17:41;12.20;93.60
18781;DHT22;9519;51.890;8.970;2023-04-24T01:22:44;12.20;93.60
18781;DHT22;9519;51.890;8.970;2023-04-24T01:27:46;12.20;93.70
18781;DHT22;9519;51.890;8.970;2023-04-24T01:32:48;12.10;93.70
18781;DHT22;9519;51.890;8.970;2023-04-24T01:37:52;12.00;93.70
18781;DHT22;9519;51.890;8.970;2023-04-24T01:42:54;12.00;93.80
18781;DHT22;9519;51.890;8.970;2023-04-24T01:47:57;11.90;93.80
18781;DHT22;9519;51.890;8.970;2023-04-24T01:53:00;11.90;93.90
18781;DHT22;9519;51.890;8.970;2023-04-24T01:58:03;11.90;93.90
18781;DHT22;9519;51.890;8.970;2023-04-24T02:03:05;11.90;93.80
18781;DHT22;9519;51.890;8.970;2023-04-24T02:08:09;12.00;93.80
18781;DHT22;9519;51.890;8.970;2023-04-24T02:13:11;12.00;93.90
18781;DHT22;9519;51.890;8.970;2023-04-24T02:18:13;12.00;93.80
18781;DHT22;9519;51.890;8.970;2023-04-24T02:23:17;12.00;93.80
18781;DHT22;9519;51.890;8.970;2023-04-24T02:28:19;12.00;93.80
18781;DHT22;9519;51.890;8.970;2023-04-24T02:33:21;12.00;93.80
18781;DHT22;9519;51.890;8.970;2023-04-24T02:38:24;12.10;93.90
18781;DHT22;9519;51.890;8.970;2023-04-24T02:43:26;12.10;93.80
18781;DHT22;9519;51.890;8.970;2023-04-24T02:48:28;12.10;93.80
18781;DHT22;9519;51.890;8.970;2023-04-24T02:53:32;12.10;93.90
18781;DHT22;9519;51.890;8.970;2023-04-24T02:58:34;12.10;93.90
18781;DHT22;9519;51.890;8.970;2023-04-24T03:03:37;12.10;93.90
18781;DHT22;9519;51.890;8.970;2023-04-24T03:08:40;12.00;93.80
18781;DHT22;9519;51.890;8.970;2023-04-24T03:13:42;12.00;93.80
18781;DHT22;9519;51.890;8.970;2023-04-24T03:18:44;11.90;93.90
18781;DHT22;9519;51.890;8.970;2023-04-24T03:23:48;11.90;94.00
18781;DHT22;9519;51.890;8.970;2023-04-24T03:28:50;11.90;94.00
18781;DHT22;9519;51.890;8.970;2023-04-24T03:33:52;11.80;94.00
18781;DHT22;9519;51.890;8.970;2023-04-24T03:38:55;11.70;94.00
18781;DHT22;9519;51.890;8.970;2023-04-24T03:43:57;11.70;94.20
18781;DHT22;9519;51.890;8.970;2023-04-24T03:48:59;11.70;94.20
18781;DHT22;9519;51.890;8.970;2023-04-24T03:54:03;11.70;94.30
18781;DHT22;9519;51.890;8.970;2023-04-24T03:59:05;11.70;94.40
18781;DHT22;9519;51.890;8.970;2023-04-24T04:04:07;11.70;94.40
18781;DHT22;9519;51.890;8.970;2023-04-24T04:09:13;11.80;94.50
18781;DHT22;9519;51.890;8.970;2023-04-24T04:14:15;11.90;94.60
18781;DHT22;9519;51.890;8.970;2023-04-24T04:19:17;11.90;94.60
18781;DHT22;9519;51.890;8.970;2023-04-24T04:24:21;12.00;94.70
18781;DHT22;9519;51.890;8.970;2023-04-24T04:29:24;12.00;95.10
18781;DHT22;9519;51.890;8.970;2023-04-24T04:34:26;12.00;95.10
18781;DHT22;9519;51.890;8.970;2023-04-24T04:39:29;11.90;95.30
18781;DHT22;9519;51.890;8.970;2023-04-24T04:44:31;11.80;95.70
18781;DHT22;9519;51.890;8.970;2023-04-24T04:49:36;11.70;95.90
18781;DHT22;9519;51.890;8.970;2023-04-24T04:54:40;11.60;96.60
18781;DHT22;9519;51.890;8.970;2023-04-24T04:59:42;11.40;96.70
18781;DHT22;9519;51.890;8.970;2023-04-24T05:04:45;11.30;96.80
18781;DHT22;9519;51.890;8.970;2023-04-24T05:09:48;11.30;96.90
18781;DHT22;9519;51.890;8.970;2023-04-24T05:14:51;11.30;97.30
18781;DHT22;9519;51.890;8.970;2023-04-24T05:19:54;11.20;97.40
18781;DHT22;9519;51.890;8.970;2023-04-24T05:24:57;11.20;97.50
18781;DHT22;9519;51.890;8.970;2023-04-24T05:29:59;11.20;97.60
18781;DHT22;9519;51.890;8.970;2023-04-24T05:35:01;11.10;97.60
18781;DHT22;9519;51.890;8.970;2023-04-24T05:40:06;11.10;97.70
18781;DHT22;9519;51.890;8.970;2023-04-24T05:45:10;11.00;97.70
18781;DHT22;9519;51.890;8.970;2023-04-24T05:50:17;11.00;97.90
18781;DHT22;9519;51.890;8.970;2023-04-24T05:55:20;10.90;97.90
18781;DHT22;9519;51.890;8.970;2023-04-24T06:00:24;10.90;97.70
18781;DHT22;9519;51.890;8.970;2023-04-24T06:05:27;10.90;97.70
18781;DHT22;9519;51.890;8.970;2023-04-24T06:10:30;10.90;97.60
18781;DHT22;9519;51.890;8.970;2023-04-24T06:15:32;10.80;97.60
18781;DHT22;9519;51.890;8.970;2023-04-24T06:20:34;10.80;97.70
18781;DHT22;9519;51.890;8.970;2023-04-24T06:25:38;10.80;97.40
18781;DHT22;9519;51.890;8.970;2023-04-24T06:30:40;10.80;97.20
18781;DHT22;9519;51.890;8.970;2023-04-24T06:35:43;10.80;96.90
18781;DHT22;9519;51.890;8.970;2023-04-24T06:40:47;10.90;96.60
18781;DHT22;9519;51.890;8.970;2023-04-24T06:45:49;11.00;96.60
18781;DHT22;9519;51.890;8.970;2023-04-24T06:50:51;11.10;96.40
18781;DHT22;9519;51.890;8.970;2023-04-24T06:55:55;11.10;96.20
18781;DHT22;9519;51.890;8.970;2023-04-24T07:00:57;11.10;96.00
18781;DHT22;9519;51.890;8.970;2023-04-24T07:05:59;11.10;95.60
18781;DHT22;9519;51.890;8.970;2023-04-24T07:11:03;11.10;95.80
18781;DHT22;9519;51.890;8.970;2023-04-24T07:16:06;11.20;95.40
18781;DHT22;9519;51.890;8.970;2023-04-24T07:21:08;11.10;95.00
18781;DHT22;9519;51.890;8.970;2023-04-24T07:26:12;11.10;94.90
18781;DHT22;9519;51.890;8.970;2023-04-24T07:31:15;11.10;94.80
18781;DHT22;9519;51.890;8.970;2023-04-24T07:36:17;11.10;94.70
18781;DHT22;9519;51.890;8.970;2023-04-24T07:41:22;11.10;94.50
18781;DHT22;9519;51.890;8.970;2023-04-24T07:46:24;11.10;94.30
18781;DHT22;9519;51.890;8.970;2023-04-24T07:51:30;11.10;94.50
18781;DHT22;9519;51.890;8.970;2023-04-24T07:56:35;11.20;94.40
18781;DHT22;9519;51.890;8.970;2023-04-24T08:01:39;11.30;94.40
18781;DHT22;9519;51.890;8.970;2023-04-24T08:06:41;11.30;94.20
18781;DHT22;9519;51.890;8.970;2023-04-24T08:11:44;11.30;94.10
18781;DHT22;9519;51.890;8.970;2023-04-24T08:16:46;11.40;94.60
18781;DHT22;9519;51.890;8.970;2023-04-24T08:21:48;11.50;94.20
18781;DHT22;9519;51.890;8.970;2023-04-24T08:26:52;11.60;94.10
18781;DHT22;9519;51.890;8.970;2023-04-24T08:31:57;11.80;94.00
18781;DHT22;9519;51.890;8.970;2023-04-24T08:36:59;11.90;93.50
18781;DHT22;9519;51.890;8.970;2023-04-24T08:42:03;11.90;93.20
18781;DHT22;9519;51.890;8.970;2023-04-24T08:47:08;12.00;93.30
18781;DHT22;9519;51.890;8.970;2023-04-24T08:52:10;11.90;93.30
18781;DHT22;9519;51.890;8.970;2023-04-24T08:57:17;11.80;93.10
18781;DHT22;9519;51.890;8.970;2023-04-24T09:02:21;11.80;93.30
18781;DHT22;9519;51.890;8.970;2023-04-24T09:07:24;11.90;93.40
18781;DHT22;9519;51.890;8.970;2023-04-24T09:12:32;12.00;93.00
18781;DHT22;9519;51.890;8.970;2023-04-24T09:17:36;12.00;93.10
18781;DHT22;9519;51.890;8.970;2023-04-24T09:22:39;12.00;93.50
18781;DHT22;9519;51.890;8.970;2023-04-24T09:27:43;12.00;93.30
18781;DHT22;9519;51.890;8.970;2023-04-24T09:32:46;12.00;93.00
18781;DHT22;9519;51.890;8.970;2023-04-24T09:37:48;12.00;93.00
18781;DHT22;9519;51.890;8.970;2023-04-24T09:42:54;12.10;92.90
18781;DHT22;9519;51.890;8.970;2023-04-24T09:47:57;12.00;92.80
18781;DHT22;9519;51.890;8.970;2023-04-24T09:53:01;12.10;92.60
18781;DHT22;9519;51.890;8.970;2023-04-24T09:58:07;12.10;92.60
18781;DHT22;9519;51.890;8.970;2023-04-24T10:03:10;12.00;92.70
18781;DHT22;9519;51.890;8.970;2023-04-24T10:08:13;12.00;92.60
18781;DHT22;9519;51.890;8.970;2023-04-24T10:13:16;12.10;92.40
18781;DHT22;9519;51.890;8.970;2023-04-24T10:18:20;12.10;92.30
18781;DHT22;9519;51.890;8.970;2023-04-24T10:23:22;12.10;92.10
18781;DHT22;9519;51.890;8.970;2023-04-24T10:28:31;12.10;92.30
18781;DHT22;9519;51.890;8.970;2023-04-24T10:33:34;12.20;91.90
18781;DHT22;9519;51.890;8.970;2023-04-24T10:38:38;12.10;92.00
18781;DHT22;9519;51.890;8.970;2023-04-24T10:43:44;12.00;92.30
18781;DHT22;9519;51.890;8.970;2023-04-24T10:48:52;12.00;92.00
18781;DHT22;9519;51.890;8.970;2023-04-24T10:53:57;11.70;91.60
18781;DHT22;9519;51.890;8.970;2023-04-24T10:59:01;11.50;92.20
18781;DHT22;9519;51.890;8.970;2023-04-24T11:04:03;11.40;92.80
18781;DHT22;9519;51.890;8.970;2023-04-24T11:09:07;11.40;92.90
18781;DHT22;9519;51.890;8.970;2023-04-24T11:14:15;11.30;92.90
18781;DHT22;9519;51.890;8.970;2023-04-24T11:19:20;11.00;93.10
18781;DHT22;9519;51.890;8.970;2023-04-24T11:24:30;10.90;93.50
18781;DHT22;9519;51.890;8.970;2023-04-24T11:29:46;10.90;93.70
18781;DHT22;9519;51.890;8.970;2023-04-24T11:34:51;10.80;93.70
18781;DHT22;9519;51.890;8.970;2023-04-24T11:39:57;10.70;94.40
18781;DHT22;9519;51.890;8.970;2023-04-24T11:45:02;10.50;95.00
18781;DHT22;9519;51.890;8.970;2023-04-24T11:50:12;10.30;95.40
18781;DHT22;9519;51.890;8.970;2023-04-24T11:55:26;10.30;95.80
18781;DHT22;9519;51.890;8.970;2023-04-24T12:00:32;10.30;96.20
18781;DHT22;9519;51.890;8.970;2023-04-24T12:05:36;10.30;96.60
18781;DHT22;9519;51.890;8.970;2023-04-24T12:10:38;10.10;97.00
18781;DHT22;9519;51.890;8.970;2023-04-24T12:15:42;10.10;97.60
18781;DHT22;9519;51.890;8.970;2023-04-24T12:20:44;10.00;98.00
18781;DHT22;9519;51.890;8.970;2023-04-24T12:25:46;9.90;98.80
18781;DHT22;9519;51.890;8.970;2023-04-24T12:30:49;9.80;98.70
18781;DHT22;9519;51.890;8.970;2023-04-24T12:35:52;9.70;99.20
18781;DHT22;9519;51.890;8.970;2023-04-24T12:41:02;9.70;99.60
18781;DHT22;9519;51.890;8.970;2023-04-24T12:46:07;9.60;99.90
18781;DHT22;9519;51.890;8.970;2023-04-24T12:51:09;9.50;99.90
18781;DHT22;9519;51.890;8.970;2023-04-24T12:56:11;9.40;99.90
18781;DHT22;9519;51.890;8.970;2023-04-24T13:01:14;9.00;99.90
18781;DHT22;9519;51.890;8.970;2023-04-24T13:06:16;9.00;99.90
18781;DHT22;9519;51.890;8.970;2023-04-24T13:11:19;8.90;99.90
18781;DHT22;9519;51.890;8.970;2023-04-24T13:16:23;8.90;99.90
18781;DHT22;9519;51.890;8.970;2023-04-24T13:21:25;8.90;99.90
18781;DHT22;9519;51.890;8.970;2023-04-24T13:26:27;9.00;99.90
18781;DHT22;9519;51.890;8.970;2023-04-24T13:31:31;9.00;99.90
18781;DHT22;9519;51.890;8.970;2023-04-24T13:36:33;9.00;99.90
18781;DHT22;9519;51.890;8.970;2023-04-24T13:41:36;9.00;99.90
18781;DHT22;9519;51.890;8.970;2023-04-24T13:46:39;9.00;99.90
18781;DHT22;9519;51.890;8.970;2023-04-24T13:51:43;8.90;99.90
18781;DHT22;9519;51.890;8.970;2023-04-24T13:56:46;8.90;99.90
18781;DHT22;9519;51.890;8.970;2023-04-24T14:01:49;8.90;99.90
18781;DHT22;9519;51.890;8.970;2023-04-24T14:06:51;8.80;99.90
18781;DHT22;9519;51.890;8.970;2023-04-24T14:11:54;8.90;99.90
18781;DHT22;9519;51.890;8.970;2023-04-24T14:16:57;9.00;99.90
18781;DHT22;9519;51.890;8.970;2023-04-24T14:22:00;9.00;99.90
18781;DHT22;9519;51.890;8.970;2023-04-24T14:27:02;9.00;99.90
18781;DHT22;9519;51.890;8.970;2023-04-24T14:32:06;9.10;99.90
18781;DHT22;9519;51.890;8.970;2023-04-24T14:37:09;9.00;99.90
18781;DHT22;9519;51.890;8.970;2023-04-24T14:42:11;9.00;99.90
18781;DHT22;9519;51.890;8.970;2023-04-24T14:47:15;9.00;99.90
18781;DHT22;9519;51.890;8.970;2023-04-24T14:52:21;9.10;99.90
18781;DHT22;9519;51.890;8.970;2023-04-24T14:57:24;9.10;99.90
18781;DHT22;9519;51.890;8.970;2023-04-24T15:02:28;9.10;99.90
18781;DHT22;9519;51.890;8.970;2023-04-24T15:07:30;9.20;99.90
18781;DHT22;9519;51.890;8.970;2023-04-24T15:12:32;9.20;99.90
18781;DHT22;9519;51.890;8.970;2023-04-24T15:17:36;9.30;99.90
18781;DHT22;9519;51.890;8.970;2023-04-24T15:22:38;9.30;99.90
18781;DHT22;9519;51.890;8.970;2023-04-24T15:27:41;9.30;99.90
18781;DHT22;9519;51.890;8.970;2023-04-24T15:32:45;9.30;99.90
18781;DHT22;9519;51.890;8.970;2023-04-24T15:37:48;9.20;99.90
18781;DHT22;9519;51.890;8.970;2023-04-24T15:42:50;9.10;99.90
18781;DHT22;9519;51.890;8.970;2023-04-24T15:47:53;9.10;99.90
18781;DHT22;9519;51.890;8.970;2023-04-24T15:52:56;9.10;99.90
18781;DHT22;9519;51.890;8.970;2023-04-24T15:57:58;9.10;99.90
18781;DHT22;9519;51.890;8.970;2023-04-24T16:03:03;9.10;99.90
18781;DHT22;9519;51.890;8.970;2023-04-24T16:08:08;9.20;99.90
18781;DHT22;9519;51.890;8.970;2023-04-24T16:13:11;9.20;99.90
18781;DHT22;9519;51.890;8.970;2023-04-24T16:18:16;9.20;99.90
18781;DHT22;9519;51.890;8.970;2023-04-24T16:23:18;9.10;99.90
18781;DHT22;9519;51.890;8.970;2023-04-24T16:28:20;9.10;99.90
18781;DHT22;9519;51.890;8.970;2023-04-24T16:33:24;9.10;99.90
18781;DHT22;9519;51.890;8.970;2023-04-24T16:38:27;9.10;99.90
18781;DHT22;9519;51.890;8.970;2023-04-24T16:43:29;9.20;99.90
18781;DHT22;9519;51.890;8.970;2023-04-24T16:48:33;9.20;99.90
18781;DHT22;9519;51.890;8.970;2023-04-24T16:53:35;9.20;99.90
18781;DHT22;9519;51.890;8.970;2023-04-24T16:58:37;9.30;99.90
18781;DHT22;9519;51.890;8.970;2023-04-24T17:03:41;9.40;99.90
18781;DHT22;9519;51.890;8.970;2023-04-24T17:08:43;9.40;99.90
18781;DHT22;9519;51.890;8.970;2023-04-24T17:13:45;9.30;99.90
18781;DHT22;9519;51.890;8.970;2023-04-24T17:18:50;9.30;99.90
18781;DHT22;9519;51.890;8.970;2023-04-24T17:23:52;9.20;99.90
18781;DHT22;9519;51.890;8.970;2023-04-24T17:28:54;9.20;99.90
18781;DHT22;9519;51.890;8.970;2023-04-24T17:33:57;9.10;99.90
18781;DHT22;9519;51.890;8.970;2023-04-24T17:39:00;9.10;99.90
18781;DHT22;9519;51.890;8.970;2023-04-24T17:44:06;9.00;99.90
18781;DHT22;9519;51.890;8.970;2023-04-24T17:49:09;9.10;99.90
18781;DHT22;9519;51.890;8.970;2023-04-24T17:54:11;9.00;99.90
18781;DHT22;9519;51.890;8.970;2023-04-24T17:59:13;9.00;99.90
18781;DHT22;9519;51.890;8.970;2023-04-24T18:04:18;9.00;99.90
18781;DHT22;9519;51.890;8.970;2023-04-24T18:09:20;8.90;99.90
18781;DHT22;9519;51.890;8.970;2023-04-24T18:14:22;9.00;99.90
18781;DHT22;9519;51.890;8.970;2023-04-24T18:19:27;8.90;99.90
18781;DHT22;9519;51.890;8.970;2023-04-24T18:24:30;8.90;99.90
18781;DHT22;9519;51.890;8.970;2023-04-24T18:29:33;8.90;99.90
18781;DHT22;9519;51.890;8.970;2023-04-24T18:34:36;8.90;99.90
18781;DHT22;9519;51.890;8.970;2023-04-24T18:39:39;8.90;99.90
18781;DHT22;9519;51.890;8.970;2023-04-24T18:44:41;8.90;99.90
18781;DHT22;9519;51.890;8.970;2023-04-24T18:49:44;8.90;99.90
18781;DHT22;9519;51.890;8.970;2023-04-24T18:54:46;8.90;99.90
18781;DHT22;9519;51.890;8.970;2023-04-24T18:59:49;8.90;99.90
18781;DHT22;9519;51.890;8.970;2023-04-24T19:04:52;8.90;99.90
18781;DHT22;9519;51.890;8.970;2023-04-24T19:09:54;8.80;99.90
18781;DHT22;9519;51.890;8.970;2023-04-24T19:14:56;8.80;99.90
18781;DHT22;9519;51.890;8.970;2023-04-24T19:20:01;8.80;99.90
18781;DHT22;9519;51.890;8.970;2023-04-24T19:25:03;8.70;99.90
18781;DHT22;9519;51.890;8.970;2023-04-24T19:30:07;8.70;99.90
18781;DHT22;9519;51.890;8.970;2023-04-24T19:35:11;8.60;99.90
18781;DHT22;9519;51.890;8.970;2023-04-24T19:40:13;8.60;99.90
18781;DHT22;9519;51.890;8.970;2023-04-24T19:45:15;8.60;99.90
18781;DHT22;9519;51.890;8.970;2023-04-24T19:50:19;8.60;99.90
18781;DHT22;9519;51.890;8.970;2023-04-24T19:55:21;8.60;99.90
18781;DHT22;9519;51.890;8.970;2023-04-24T20:00:23;8.50;99.90
18781;DHT22;9519;51.890;8.970;2023-04-24T20:05:26;8.60;99.90
18781;DHT22;9519;51.890;8.970;2023-04-24T20:10:29;8.60;99.90
18781;DHT22;9519;51.890;8.970;2023-04-24T20:15:33;8.60;99.90
18781;DHT22;9519;51.890;8.970;2023-04-24T20:20:36;8.60;99.90
18781;DHT22;9519;51.890;8.970;2023-04-24T20:25:41;8.60;99.90
18781;DHT22;9519;51.890;8.970;2023-04-24T20:30:43;8.50;99.90
18781;DHT22;9519;51.890;8.970;2023-04-24T20:35:46;8.50;99.90
18781;DHT22;9519;51.890;8.970;2023-04-24T20:40:49;8.40;99.90
18781;DHT22;9519;51.890;8.970;2023-04-24T20:45:51;8.40;99.90
18781;DHT22;9519;51.890;8.970;2023-04-24T20:50:55;8.40;99.90
18781;DHT22;9519;51.890;8.970;2023-04-24T20:55:57;8.30;99.90
18781;DHT22;9519;51.890;8.970;2023-04-24T21:00:59;8.30;99.90
18781;DHT22;9519;51.890;8.970;2023-04-24T21:06:03;8.30;99.90
18781;DHT22;9519;51.890;8.970;2023-04-24T21:11:06;8.30;99.90
18781;DHT22;9519;51.890;8.970;2023-04-24T21:16:08;8.30;99.90
18781;DHT22;9519;51.890;8.970;2023-04-24T21:21:11;8.20;99.90
18781;DHT22;9519;51.890;8.970;2023-04-24T21:26:14;8.20;99.90
18781;DHT22;9519;51.890;8.970;2023-04-24T21:31:16;8.10;99.90
18781;DHT22;9519;51.890;8.970;2023-04-24T21:36:20;8.10;99.90
18781;DHT22;9519;51.890;8.970;2023-04-24T21:41:22;8.10;99.90
18781;DHT22;9519;51.890;8.970;2023-04-24T21:46:25;8.10;99.90
18781;DHT22;9519;51.890;8.970;2023-04-24T21:51:28;8.00;99.90
18781;DHT22;9519;51.890;8.970;2023-04-24T21:56:31;8.00;99.90
18781;DHT22;9519;51.890;8.970;2023-04-24T22:01:33;7.90;99.90
18781;DHT22;9519;51.890;8.970;2023-04-24T22:06:37;7.90;99.90
18781;DHT22;9519;51.890;8.970;2023-04-24T22:11:39;7.80;99.90
18781;DHT22;9519;51.890;8.970;2023-04-24T22:16:42;7.60;99.90
18781;DHT22;9519;51.890;8.970;2023-04-24T22:21:46;7.80;99.90
18781;DHT22;9519;51.890;8.970;2023-04-24T22:26:48;7.70;99.90
18781;DHT22;9519;51.890;8.970;2023-04-24T22:31:51;7.70;99.90
18781;DHT22;9519;51.890;8.970;2023-04-24T22:36:57;7.60;99.90
18781;DHT22;9519;51.890;8.970;2023-04-24T22:41:59;7.50;99.90
18781;DHT22;9519;51.890;8.970;2023-04-24T22:47:02;7.50;99.90
18781;DHT22;9519;51.890;8.970;2023-04-24T22:52:09;7.50;99.90
18781;DHT22;9519;51.890;8.970;2023-04-24T22:57:14;7.40;99.90
18781;DHT22;9519;51.890;8.970;2023-04-24T23:02:16;7.30;99.90
18781;DHT22;9519;51.890;8.970;2023-04-24T23:07:19;7.30;99.90
18781;DHT22;9519;51.890;8.970;2023-04-24T23:12:21;7.30;99.90
18781;DHT22;9519;51.890;8.970;2023-04-24T23:17:23;7.40;99.90
18781;DHT22;9519;51.890;8.970;2023-04-24T23:22:27;7.20;99.90
18781;DHT22;9519;51.890;8.970;2023-04-24T23:27:30;7.30;99.90
18781;DHT22;9519;51.890;8.970;2023-04-24T23:32:32;7.30;99.90
18781;DHT22;9519;51.890;8.970;2023-04-24T23:37:35;7.30;99.90
18781;DHT22;9519;51.890;8.970;2023-04-24T23:42:37;7.60;99.90
18781;DHT22;9519;51.890;8.970;2023-04-24T23:47:39;7.30;99.90
18781;DHT22;9519;51.890;8.970;2023-04-24T23:52:43;7.30;99.90
18781;DHT22;9519;51.890;8.970;2023-04-24T23:57:45;7.30;99.90
